createdAt,value
2019-05-14T00:00:52.675Z,964.66
2019-05-14T00:01:52.692Z,964.67
2019-05-14T00:02:52.638Z,964.75
2019-05-14T00:03:52.636Z,964.75
2019-05-14T00:04:52.641Z,964.71
2019-05-14T00:05:52.612Z,964.71
2019-05-14T00:06:52.607Z,964.72
2019-05-14T00:07:52.610Z,964.72
2019-05-14T00:08:52.580Z,964.66
2019-05-14T00:09:52.563Z,964.68
2019-05-14T00:10:52.573Z,964.63
2019-05-14T00:11:52.548Z,964.67
2019-05-14T00:12:52.557Z,964.65
2019-05-14T00:13:52.519Z,964.66
2019-05-14T00:14:52.508Z,964.66
2019-05-14T00:15:52.505Z,964.62
2019-05-14T00:16:52.486Z,964.59
2019-05-14T00:17:52.505Z,964.56
2019-05-14T00:18:52.474Z,964.55
2019-05-14T00:20:06.344Z,964.57
2019-05-14T00:20:53.435Z,964.56
2019-05-14T00:21:52.430Z,964.51
2019-05-14T00:22:52.421Z,964.47
2019-05-14T00:23:52.459Z,964.47
2019-05-14T00:24:52.388Z,964.47
2019-05-14T00:25:52.481Z,964.40
2019-05-14T00:26:52.368Z,964.39
2019-05-14T00:27:52.361Z,964.40
2019-05-14T00:28:52.342Z,964.37
2019-05-14T00:29:52.391Z,964.36
2019-05-14T00:30:52.603Z,964.36
2019-05-14T00:31:52.331Z,964.34
2019-05-14T00:32:52.297Z,964.36
2019-05-14T00:33:53.286Z,964.35
2019-05-14T00:34:52.277Z,964.31
2019-05-14T00:35:52.302Z,964.35
2019-05-14T00:36:52.592Z,964.29
2019-05-14T00:37:52.266Z,964.26
2019-05-14T00:38:52.246Z,964.25
2019-05-14T00:39:52.356Z,964.30
2019-05-14T00:40:52.229Z,964.35
2019-05-14T00:41:52.208Z,964.38
2019-05-14T00:42:53.293Z,964.38
2019-05-14T00:43:52.171Z,964.39
2019-05-14T00:44:57.743Z,964.41
2019-05-14T00:45:53.177Z,964.39
2019-05-14T00:46:52.139Z,964.44
2019-05-14T00:47:52.589Z,964.39
2019-05-14T00:48:52.119Z,964.37
2019-05-14T00:49:52.100Z,964.41
2019-05-14T00:50:52.094Z,964.38
2019-05-14T00:51:52.117Z,964.33
2019-05-14T00:52:52.071Z,964.34
2019-05-14T00:53:52.069Z,964.29
2019-05-14T00:54:52.388Z,964.31
2019-05-14T00:55:52.040Z,964.26
2019-05-14T00:56:52.281Z,964.29
2019-05-14T00:57:52.339Z,964.29
2019-05-14T00:58:52.355Z,964.27
2019-05-14T00:59:52.306Z,964.23
2019-05-14T01:00:52.694Z,964.28
2019-05-14T01:01:51.971Z,964.34
2019-05-14T01:02:52.008Z,964.29
2019-05-14T01:03:52.250Z,964.34
2019-05-14T01:04:51.933Z,964.33
2019-05-14T01:05:52.424Z,964.29
2019-05-14T01:06:52.824Z,964.27
2019-05-14T01:07:51.904Z,964.33
2019-05-14T01:08:52.043Z,964.30
2019-05-14T01:09:52.521Z,964.27
2019-05-14T01:10:51.865Z,964.28
2019-05-14T01:11:51.873Z,964.24
2019-05-14T01:12:52.168Z,964.29
2019-05-14T01:13:52.334Z,964.21
2019-05-14T01:15:06.754Z,964.17
2019-05-14T01:15:52.804Z,964.16
2019-05-14T01:16:51.800Z,964.18
2019-05-14T01:17:51.850Z,964.13
2019-05-14T01:18:51.793Z,964.14
2019-05-14T01:19:51.787Z,964.13
2019-05-14T01:20:52.095Z,964.15
2019-05-14T01:21:51.734Z,964.16
2019-05-14T01:22:51.803Z,964.16
2019-05-14T01:23:51.737Z,964.21
2019-05-14T01:24:52.347Z,964.14
2019-05-14T01:25:51.874Z,964.14
2019-05-14T01:26:52.230Z,964.18
2019-05-14T01:27:51.920Z,964.20
2019-05-14T01:28:51.659Z,964.16
2019-05-14T01:29:51.668Z,964.14
2019-05-14T01:30:52.045Z,964.15
2019-05-14T01:31:52.123Z,964.16
2019-05-14T01:32:51.615Z,964.18
2019-05-14T01:33:51.710Z,964.14
2019-05-14T01:34:52.154Z,964.16
2019-05-14T01:35:51.698Z,964.22
2019-05-14T01:36:52.955Z,964.21
2019-05-14T01:37:52.178Z,964.24
2019-05-14T01:38:51.580Z,964.25
2019-05-14T01:39:52.149Z,964.33
2019-05-14T01:40:52.372Z,964.27
2019-05-14T01:41:51.806Z,964.31
2019-05-14T01:42:52.227Z,964.28
2019-05-14T01:43:51.502Z,964.37
2019-05-14T01:44:52.052Z,964.39
2019-05-14T01:45:52.445Z,964.30
2019-05-14T01:46:51.455Z,964.38
2019-05-14T01:47:52.040Z,964.35
2019-05-14T01:48:52.097Z,964.43
2019-05-14T01:49:51.692Z,964.38
2019-05-14T01:50:51.975Z,964.46
2019-05-14T01:51:51.396Z,964.42
2019-05-14T01:52:52.003Z,964.42
2019-05-14T01:53:52.057Z,964.40
2019-05-14T01:54:51.705Z,964.37
2019-05-14T01:55:51.958Z,964.38
2019-05-14T01:56:51.624Z,964.36
2019-05-14T01:57:51.760Z,964.41
2019-05-14T01:58:52.284Z,964.40
2019-05-14T01:59:51.786Z,964.37
2019-05-14T02:00:52.361Z,964.39
2019-05-14T02:01:51.829Z,964.46
2019-05-14T02:02:52.459Z,964.44
2019-05-14T02:03:51.771Z,964.40
2019-05-14T02:04:51.562Z,964.39
2019-05-14T02:05:52.051Z,964.46
2019-05-14T02:06:51.553Z,964.45
2019-05-14T02:07:52.597Z,964.41
2019-05-14T02:08:51.603Z,964.41
2019-05-14T02:09:51.871Z,964.43
2019-05-14T02:10:52.673Z,964.36
2019-05-14T02:11:51.880Z,964.38
2019-05-14T02:12:51.690Z,964.36
2019-05-14T02:13:51.872Z,964.41
2019-05-14T02:14:51.377Z,964.34
2019-05-14T02:15:51.999Z,964.38
2019-05-14T02:16:51.317Z,964.35
2019-05-14T02:17:51.862Z,964.37
2019-05-14T02:18:52.250Z,964.37
2019-05-14T02:19:51.606Z,964.41
2019-05-14T02:20:52.023Z,964.44
2019-05-14T02:21:51.543Z,964.44
2019-05-14T02:22:52.439Z,964.41
2019-05-14T02:23:51.466Z,964.40
2019-05-14T02:24:51.961Z,964.38
2019-05-14T02:25:51.877Z,964.35
2019-05-14T02:26:51.597Z,964.35
2019-05-14T02:27:51.944Z,964.33
2019-05-14T02:28:51.397Z,964.36
2019-05-14T02:29:51.847Z,964.35
2019-05-14T02:30:57.506Z,964.30
2019-05-14T02:31:50.977Z,964.32
2019-05-14T02:32:50.962Z,964.28
2019-05-14T02:33:51.842Z,964.28
2019-05-14T02:34:50.905Z,964.32
2019-05-14T02:35:50.887Z,964.29
2019-05-14T02:36:50.906Z,964.24
2019-05-14T02:37:50.859Z,964.20
2019-05-14T02:38:50.884Z,964.25
2019-05-14T02:39:50.848Z,964.22
2019-05-14T02:40:50.835Z,964.21
2019-05-14T02:41:50.822Z,964.18
2019-05-14T02:42:50.844Z,964.16
2019-05-14T02:43:50.790Z,964.15
2019-05-14T02:44:50.815Z,964.10
2019-05-14T02:46:09.606Z,964.09
2019-05-14T02:46:51.796Z,964.10
2019-05-14T02:47:50.763Z,964.03
2019-05-14T02:48:50.765Z,964.08
2019-05-14T02:49:50.726Z,964.11
2019-05-14T02:50:50.733Z,964.09
2019-05-14T02:51:50.839Z,964.12
2019-05-14T02:52:50.696Z,964.11
2019-05-14T02:53:50.685Z,964.14
2019-05-14T02:54:50.693Z,964.12
2019-05-14T02:55:50.682Z,964.10
2019-05-14T02:56:50.676Z,964.13
2019-05-14T02:57:50.640Z,964.15
2019-05-14T02:58:50.643Z,964.12
2019-05-14T02:59:51.329Z,964.09
2019-05-14T03:00:50.636Z,964.12
2019-05-14T03:01:50.646Z,964.11
2019-05-14T03:02:50.584Z,964.11
2019-05-14T03:03:50.576Z,964.10
2019-05-14T03:04:50.563Z,964.11
2019-05-14T03:05:50.553Z,964.12
2019-05-14T03:06:50.561Z,964.10
2019-05-14T03:07:50.541Z,964.14
2019-05-14T03:08:50.517Z,964.13
2019-05-14T03:09:50.597Z,964.10
2019-05-14T03:10:50.851Z,964.07
2019-05-14T03:11:50.484Z,964.10
2019-05-14T03:12:50.599Z,964.08
2019-05-14T03:13:50.456Z,964.10
2019-05-14T03:14:50.452Z,964.06
2019-05-14T03:15:50.431Z,964.06
2019-05-14T03:16:50.423Z,964.12
2019-05-14T03:17:50.413Z,964.12
2019-05-14T03:18:50.722Z,964.08
2019-05-14T03:19:50.412Z,964.06
2019-05-14T03:20:50.620Z,964.06
2019-05-14T03:21:50.548Z,964.07
2019-05-14T03:23:02.583Z,964.03
2019-05-14T03:23:51.538Z,964.08
2019-05-14T03:24:50.565Z,964.06
2019-05-14T03:25:50.340Z,964.07
2019-05-14T03:26:50.404Z,964.05
2019-05-14T03:27:50.302Z,964.05
2019-05-14T03:28:50.284Z,964.07
2019-05-14T03:29:50.415Z,964.03
2019-05-14T03:30:52.017Z,964.08
2019-05-14T03:31:52.793Z,964.07
2019-05-14T03:32:52.966Z,964.08
2019-05-14T03:33:52.511Z,964.08
2019-05-14T03:34:52.861Z,964.07
2019-05-14T03:35:58.488Z,964.12
2019-05-14T03:36:53.227Z,964.11
2019-05-14T03:37:50.207Z,964.10
2019-05-14T03:38:50.520Z,964.08
2019-05-14T03:39:50.160Z,964.08
2019-05-14T03:40:50.169Z,964.07
2019-05-14T03:41:50.298Z,964.08
2019-05-14T03:42:50.140Z,964.07
2019-05-14T03:43:50.174Z,964.05
2019-05-14T03:44:50.105Z,964.09
2019-05-14T03:45:50.081Z,964.07
2019-05-14T03:46:55.149Z,964.06
2019-05-14T03:47:51.072Z,964.06
2019-05-14T03:48:50.058Z,964.06
2019-05-14T03:49:50.136Z,964.04
2019-05-14T03:50:50.031Z,964.05
2019-05-14T03:51:50.104Z,964.05
2019-05-14T03:52:50.283Z,964.10
2019-05-14T03:54:01.030Z,964.06
2019-05-14T03:54:50.991Z,964.07
2019-05-14T03:55:50.792Z,964.06
2019-05-14T03:56:50.107Z,964.04
2019-05-14T03:57:50.358Z,964.07
2019-05-14T03:58:49.947Z,964.08
2019-05-14T03:59:50.328Z,964.05
2019-05-14T04:00:50.819Z,964.08
2019-05-14T04:01:51.128Z,964.08
2019-05-14T04:02:49.921Z,964.06
2019-05-14T04:03:50.584Z,964.05
2019-05-14T04:04:50.507Z,964.04
2019-05-14T04:05:50.147Z,964.06
2019-05-14T04:06:50.014Z,964.06
2019-05-14T04:07:50.484Z,964.04
2019-05-14T04:08:50.091Z,964.07
2019-05-14T04:09:49.811Z,964.08
2019-05-14T04:10:53.980Z,964.05
2019-05-14T04:11:50.297Z,964.06
2019-05-14T04:12:49.771Z,964.07
2019-05-14T04:13:49.951Z,964.02
2019-05-14T04:14:50.359Z,964.03
2019-05-14T04:15:50.080Z,964.02
2019-05-14T04:17:01.250Z,963.99
2019-05-14T04:17:50.712Z,964.02
2019-05-14T04:18:50.499Z,964.03
2019-05-14T04:19:50.135Z,964.02
2019-05-14T04:20:50.302Z,963.99
2019-05-14T04:21:49.676Z,963.99
2019-05-14T04:22:50.160Z,963.99
2019-05-14T04:23:50.764Z,964.02
2019-05-14T04:24:50.063Z,964.01
2019-05-14T04:25:50.108Z,964.00
2019-05-14T04:26:58.294Z,964.00
2019-05-14T04:27:50.612Z,964.00
2019-05-14T04:28:50.181Z,964.04
2019-05-14T04:29:50.032Z,964.02
2019-05-14T04:30:49.613Z,964.06
2019-05-14T04:31:50.409Z,964.08
2019-05-14T04:32:50.465Z,964.02
2019-05-14T04:33:50.149Z,964.05
2019-05-14T04:34:50.080Z,964.08
2019-05-14T04:35:49.526Z,964.05
2019-05-14T04:36:50.404Z,964.09
2019-05-14T04:37:49.840Z,964.02
2019-05-14T04:38:54.251Z,964.05
2019-05-14T04:39:50.833Z,964.08
2019-05-14T04:40:49.668Z,964.01
2019-05-14T04:41:49.876Z,964.03
2019-05-14T04:42:50.428Z,964.01
2019-05-14T04:43:50.126Z,964.00
2019-05-14T04:44:50.527Z,964.01
2019-05-14T04:45:49.934Z,963.96
2019-05-14T04:46:49.671Z,964.05
2019-05-14T04:47:50.137Z,964.04
2019-05-14T04:48:50.722Z,964.04
2019-05-14T04:49:50.607Z,964.11
2019-05-14T04:50:49.945Z,964.06
2019-05-14T04:51:50.419Z,964.09
2019-05-14T04:52:49.751Z,964.11
2019-05-14T04:53:50.268Z,964.09
2019-05-14T04:54:50.054Z,964.02
2019-05-14T04:55:49.665Z,964.02
2019-05-14T04:56:50.727Z,963.96
2019-05-14T04:57:50.256Z,964.08
2019-05-14T04:58:50.047Z,964.01
2019-05-14T04:59:49.609Z,964.00
2019-05-14T05:00:50.140Z,964.03
2019-05-14T05:01:49.636Z,963.97
2019-05-14T05:02:49.906Z,964.00
2019-05-14T05:03:50.825Z,963.97
2019-05-14T05:04:50.758Z,963.97
2019-05-14T05:05:50.141Z,963.96
2019-05-14T05:06:50.048Z,963.97
2019-05-14T05:07:49.453Z,963.95
2019-05-14T05:08:49.736Z,963.94
2019-05-14T05:09:50.206Z,963.97
2019-05-14T05:10:49.760Z,963.96
2019-05-14T05:11:49.990Z,963.93
2019-05-14T05:12:49.462Z,963.93
2019-05-14T05:13:49.111Z,963.95
2019-05-14T05:14:49.488Z,963.91
2019-05-14T05:15:49.068Z,963.90
2019-05-14T05:16:49.192Z,963.93
2019-05-14T05:17:52.873Z,963.91
2019-05-14T05:18:49.534Z,963.89
2019-05-14T05:19:51.438Z,963.88
2019-05-14T05:20:50.563Z,963.91
2019-05-14T05:21:49.823Z,963.89
2019-05-14T05:22:49.005Z,963.95
2019-05-14T05:23:49.407Z,963.96
2019-05-14T05:24:48.968Z,963.89
2019-05-14T05:25:49.176Z,963.96
2019-05-14T05:26:48.938Z,963.94
2019-05-14T05:27:48.930Z,963.91
2019-05-14T05:29:02.342Z,963.91
2019-05-14T05:29:49.949Z,963.88
2019-05-14T05:30:49.190Z,963.91
2019-05-14T05:31:49.386Z,963.87
2019-05-14T05:32:49.563Z,963.86
2019-05-14T05:33:49.200Z,963.86
2019-05-14T05:34:48.866Z,963.86
2019-05-14T05:35:48.823Z,963.84
2019-05-14T05:36:48.872Z,963.81
2019-05-14T05:37:49.165Z,963.81
2019-05-14T05:38:49.357Z,963.82
2019-05-14T05:39:49.198Z,963.85
2019-05-14T05:40:48.823Z,963.85
2019-05-14T05:41:49.318Z,963.82
2019-05-14T05:42:49.145Z,963.81
2019-05-14T05:43:48.762Z,963.82
2019-05-14T05:44:48.837Z,963.75
2019-05-14T05:45:48.755Z,963.81
2019-05-14T05:46:49.372Z,963.78
2019-05-14T05:47:57.885Z,963.70
2019-05-14T05:48:49.680Z,963.68
2019-05-14T05:49:48.981Z,963.77
2019-05-14T05:50:48.705Z,963.76
2019-05-14T05:51:48.666Z,963.74
2019-05-14T05:52:49.819Z,963.72
2019-05-14T05:53:48.763Z,963.73
2019-05-14T05:54:49.128Z,963.71
2019-05-14T05:55:48.645Z,963.68
2019-05-14T05:56:48.586Z,963.72
2019-05-14T05:57:49.277Z,963.66
2019-05-14T05:58:49.051Z,963.72
2019-05-14T05:59:48.803Z,963.72
2019-05-14T06:00:49.744Z,963.65
2019-05-14T06:01:50.228Z,963.65
2019-05-14T06:02:49.041Z,963.62
2019-05-14T06:03:49.256Z,963.62
2019-05-14T06:04:48.520Z,963.63
2019-05-14T06:05:49.212Z,963.60
2019-05-14T06:06:48.473Z,963.56
2019-05-14T06:07:48.520Z,963.61
2019-05-14T06:08:49.173Z,963.58
2019-05-14T06:09:48.528Z,963.61
2019-05-14T06:10:49.104Z,963.62
2019-05-14T06:11:48.922Z,963.58
2019-05-14T06:12:49.144Z,963.58
2019-05-14T06:13:48.739Z,963.61
2019-05-14T06:14:48.908Z,963.58
2019-05-14T06:15:51.927Z,963.57
2019-05-14T06:16:48.808Z,963.58
2019-05-14T06:17:49.182Z,963.58
2019-05-14T06:18:48.764Z,963.59
2019-05-14T06:19:48.737Z,963.59
2019-05-14T06:20:49.382Z,963.56
2019-05-14T06:21:48.956Z,963.56
2019-05-14T06:22:48.914Z,963.51
2019-05-14T06:23:49.077Z,963.55
2019-05-14T06:24:48.741Z,963.50
2019-05-14T06:25:49.126Z,963.52
2019-05-14T06:26:49.045Z,963.52
2019-05-14T06:27:48.672Z,963.50
2019-05-14T06:28:49.034Z,963.48
2019-05-14T06:29:48.860Z,963.51
2019-05-14T06:30:48.492Z,963.52
2019-05-14T06:31:49.529Z,963.51
2019-05-14T06:32:48.811Z,963.53
2019-05-14T06:33:48.823Z,963.44
2019-05-14T06:34:48.855Z,963.48
2019-05-14T06:35:48.723Z,963.43
2019-05-14T06:36:48.768Z,963.44
2019-05-14T06:37:49.017Z,963.44
2019-05-14T06:38:49.326Z,963.45
2019-05-14T06:39:48.513Z,963.43
2019-05-14T06:40:48.961Z,963.41
2019-05-14T06:41:48.989Z,963.46
2019-05-14T06:42:48.538Z,963.63
2019-05-14T06:43:48.763Z,963.40
2019-05-14T06:44:49.263Z,963.42
2019-05-14T06:45:49.598Z,963.60
2019-05-14T06:46:48.723Z,963.53
2019-05-14T06:47:48.750Z,963.51
2019-05-14T06:48:48.761Z,963.44
2019-05-14T06:49:48.891Z,963.48
2019-05-14T06:50:50.320Z,963.54
2019-05-14T06:51:48.992Z,963.50
2019-05-14T06:52:49.157Z,963.42
2019-05-14T06:53:49.829Z,963.50
2019-05-14T06:54:49.735Z,963.46
2019-05-14T06:55:48.448Z,963.49
2019-05-14T06:56:48.795Z,963.52
2019-05-14T06:57:48.157Z,963.49
2019-05-14T06:58:49.114Z,963.51
2019-05-14T06:59:48.545Z,963.52
2019-05-14T07:00:49.499Z,963.57
2019-05-14T07:01:49.024Z,963.56
2019-05-14T07:02:49.086Z,963.53
2019-05-14T07:03:48.979Z,963.49
2019-05-14T07:04:48.458Z,963.53
2019-05-14T07:05:49.308Z,963.54
2019-05-14T07:06:48.461Z,963.57
2019-05-14T07:07:49.295Z,963.63
2019-05-14T07:08:48.748Z,963.58
2019-05-14T07:09:48.816Z,963.55
2019-05-14T07:10:48.611Z,963.55
2019-05-14T07:11:49.154Z,963.60
2019-05-14T07:12:49.965Z,963.54
2019-05-14T07:13:49.245Z,963.55
2019-05-14T07:14:48.218Z,963.57
2019-05-14T07:15:48.874Z,963.56
2019-05-14T07:16:48.497Z,963.55
2019-05-14T07:17:48.786Z,963.59
2019-05-14T07:18:52.796Z,963.59
2019-05-14T07:19:49.211Z,963.56
2019-05-14T07:20:48.566Z,963.57
2019-05-14T07:21:49.152Z,963.55
2019-05-14T07:22:48.347Z,963.52
2019-05-14T07:23:48.951Z,963.55
2019-05-14T07:24:49.724Z,963.61
2019-05-14T07:25:48.274Z,963.59
2019-05-14T07:26:49.366Z,963.61
2019-05-14T07:27:48.972Z,963.55
2019-05-14T07:28:48.773Z,963.59
2019-05-14T07:29:49.162Z,963.57
2019-05-14T07:30:48.560Z,963.60
2019-05-14T07:31:48.909Z,963.63
2019-05-14T07:32:48.464Z,963.69
2019-05-14T07:33:49.246Z,963.65
2019-05-14T07:34:48.202Z,963.65
2019-05-14T07:35:48.735Z,963.65
2019-05-14T07:36:49.109Z,963.67
2019-05-14T07:37:48.837Z,963.68
2019-05-14T07:38:49.007Z,963.60
2019-05-14T07:39:48.763Z,963.62
2019-05-14T07:40:49.487Z,963.61
2019-05-14T07:41:48.349Z,963.60
2019-05-14T07:42:48.764Z,963.54
2019-05-14T07:43:48.304Z,963.53
2019-05-14T07:44:48.523Z,963.53
2019-05-14T07:45:49.133Z,963.54
2019-05-14T07:46:48.381Z,963.52
2019-05-14T07:47:49.340Z,963.55
2019-05-14T07:49:03.921Z,963.52
2019-05-14T07:49:49.031Z,963.53
2019-05-14T07:50:49.139Z,963.52
2019-05-14T07:51:48.162Z,963.55
2019-05-14T07:52:49.761Z,963.61
2019-05-14T07:53:48.742Z,963.58
2019-05-14T07:54:48.127Z,963.57
2019-05-14T07:55:49.230Z,963.43
2019-05-14T07:56:50.955Z,963.46
2019-05-14T07:57:48.331Z,963.38
2019-05-14T07:58:49.170Z,963.39
2019-05-14T07:59:48.400Z,963.45
2019-05-14T08:00:49.221Z,963.49
2019-05-14T08:01:49.099Z,963.44
2019-05-14T08:02:49.088Z,963.44
2019-05-14T08:03:48.921Z,963.39
2019-05-14T08:04:48.661Z,963.43
2019-05-14T08:05:48.341Z,963.43
2019-05-14T08:06:48.765Z,963.34
2019-05-14T08:07:48.061Z,963.39
2019-05-14T08:08:49.288Z,963.31
2019-05-14T08:09:48.012Z,963.33
2019-05-14T08:10:48.731Z,963.29
2019-05-14T08:11:48.052Z,963.36
2019-05-14T08:12:48.492Z,963.32
2019-05-14T08:13:49.087Z,963.26
2019-05-14T08:15:09.032Z,963.33
2019-05-14T08:15:49.039Z,963.32
2019-05-14T08:16:48.879Z,963.35
2019-05-14T08:17:48.194Z,963.35
2019-05-14T08:18:48.691Z,963.33
2019-05-14T08:19:48.955Z,963.30
2019-05-14T08:20:48.711Z,963.24
2019-05-14T08:21:48.161Z,963.29
2019-05-14T08:22:49.027Z,963.25
2019-05-14T08:23:48.101Z,963.24
2019-05-14T08:24:48.892Z,963.21
2019-05-14T08:25:48.100Z,963.19
2019-05-14T08:26:48.712Z,963.09
2019-05-14T08:27:48.241Z,963.23
2019-05-14T08:28:48.889Z,963.19
2019-05-14T08:29:48.609Z,963.20
2019-05-14T08:30:48.939Z,963.24
2019-05-14T08:31:48.742Z,963.22
2019-05-14T08:32:48.805Z,963.19
2019-05-14T08:33:48.842Z,963.13
2019-05-14T08:34:48.020Z,963.15
2019-05-14T08:35:48.763Z,963.19
2019-05-14T08:36:48.329Z,963.14
2019-05-14T08:37:49.039Z,963.17
2019-05-14T08:38:49.676Z,963.15
2019-05-14T08:39:48.614Z,963.16
2019-05-14T08:40:48.824Z,963.14
2019-05-14T08:41:58.486Z,963.08
2019-05-14T08:42:49.002Z,963.12
2019-05-14T08:43:48.911Z,963.15
2019-05-14T08:44:50.927Z,963.13
2019-05-14T08:45:48.859Z,963.14
2019-05-14T08:46:48.609Z,963.11
2019-05-14T08:47:48.332Z,963.05
2019-05-14T08:48:49.249Z,963.13
2019-05-14T08:49:50.462Z,963.08
2019-05-14T08:50:48.162Z,963.09
2019-05-14T08:51:49.194Z,963.19
2019-05-14T08:52:48.348Z,963.20
2019-05-14T08:53:49.795Z,963.20
2019-05-14T08:54:49.029Z,963.15
2019-05-14T08:55:48.703Z,963.17
2019-05-14T08:56:48.874Z,963.19
2019-05-14T08:57:48.980Z,963.16
2019-05-14T08:58:49.162Z,963.16
2019-05-14T08:59:48.606Z,963.11
2019-05-14T09:00:48.281Z,963.13
2019-05-14T09:01:58.704Z,963.12
2019-05-14T09:02:48.543Z,963.11
2019-05-14T09:03:49.038Z,963.11
2019-05-14T09:04:52.683Z,963.16
2019-05-14T09:05:49.207Z,963.21
2019-05-14T09:06:48.751Z,963.22
2019-05-14T09:07:48.809Z,963.24
2019-05-14T09:08:46.400Z,963.27
2019-05-14T09:09:48.799Z,963.27
2019-05-14T09:10:46.376Z,963.22
2019-05-14T09:11:50.130Z,963.31
2019-05-14T09:12:46.392Z,963.29
2019-05-14T09:13:48.884Z,963.30
2019-05-14T09:14:48.336Z,963.26
2019-05-14T09:15:48.705Z,963.26
2019-05-14T09:16:50.576Z,963.24
2019-05-14T09:17:48.400Z,963.35
2019-05-14T09:18:48.847Z,963.24
2019-05-14T09:20:01.003Z,963.26
2019-05-14T09:20:48.608Z,963.23
2019-05-14T09:21:46.254Z,963.22
2019-05-14T09:22:48.827Z,963.21
2019-05-14T09:23:48.231Z,963.20
2019-05-14T09:24:48.874Z,963.15
2019-05-14T09:25:49.291Z,963.22
2019-05-14T09:26:48.341Z,963.26
2019-05-14T09:27:46.187Z,963.19
2019-05-14T09:28:48.248Z,963.19
2019-05-14T09:29:48.282Z,963.12
2019-05-14T09:30:48.572Z,963.13
2019-05-14T09:31:46.174Z,963.10
2019-05-14T09:32:48.959Z,963.14
2019-05-14T09:33:46.117Z,963.14
2019-05-14T09:34:48.582Z,963.16
2019-05-14T09:35:46.095Z,963.15
2019-05-14T09:36:48.732Z,963.11
2019-05-14T09:37:50.931Z,963.07
2019-05-14T09:38:49.112Z,963.10
2019-05-14T09:39:46.056Z,963.10
2019-05-14T09:40:48.708Z,963.03
2019-05-14T09:41:48.037Z,963.07
2019-05-14T09:42:46.029Z,963.11
2019-05-14T09:43:48.390Z,963.00
2019-05-14T09:44:45.988Z,963.08
2019-05-14T09:45:48.008Z,963.05
2019-05-14T09:46:45.970Z,963.03
2019-05-14T09:47:50.329Z,962.97
2019-05-14T09:48:48.400Z,962.98
2019-05-14T09:49:45.936Z,963.09
2019-05-14T09:50:45.913Z,963.02
2019-05-14T09:51:45.925Z,963.03
2019-05-14T09:52:45.894Z,963.03
2019-05-14T09:53:45.907Z,963.04
2019-05-14T09:54:45.901Z,963.08
2019-05-14T09:55:45.865Z,963.05
2019-05-14T09:56:48.396Z,962.97
2019-05-14T09:57:45.841Z,962.98
2019-05-14T09:58:45.827Z,962.93
2019-05-14T09:59:47.807Z,962.83
2019-05-14T10:00:48.353Z,962.84
2019-05-14T10:01:45.790Z,962.85
2019-05-14T10:02:48.869Z,962.83
2019-05-14T10:03:45.767Z,962.84
2019-05-14T10:04:48.731Z,962.78
2019-05-14T10:05:45.761Z,962.76
2019-05-14T10:06:48.345Z,962.82
2019-05-14T10:07:45.718Z,962.74
2019-05-14T10:08:45.707Z,962.78
2019-05-14T10:09:45.713Z,962.68
2019-05-14T10:10:45.711Z,962.72
2019-05-14T10:11:45.680Z,962.71
2019-05-14T10:12:53.890Z,962.69
2019-05-14T10:13:48.440Z,962.70
2019-05-14T10:14:45.641Z,962.70
2019-05-14T10:15:45.623Z,962.65
2019-05-14T10:16:45.638Z,962.70
2019-05-14T10:17:45.613Z,962.61
2019-05-14T10:18:45.597Z,962.60
2019-05-14T10:19:45.627Z,962.61
2019-05-14T10:20:48.575Z,962.68
2019-05-14T10:21:45.567Z,962.61
2019-05-14T10:22:48.101Z,962.65
2019-05-14T10:23:45.552Z,962.69
2019-05-14T10:24:45.525Z,962.76
2019-05-14T10:25:46.561Z,962.80
2019-05-14T10:26:48.648Z,962.80
2019-05-14T10:27:45.508Z,962.79
2019-05-14T10:28:45.480Z,962.72
2019-05-14T10:29:45.467Z,962.70
2019-05-14T10:30:45.473Z,962.76
2019-05-14T10:31:45.444Z,962.70
2019-05-14T10:32:45.530Z,962.70
2019-05-14T10:33:45.422Z,962.58
2019-05-14T10:34:45.412Z,962.59
2019-05-14T10:35:45.402Z,962.54
2019-05-14T10:36:45.383Z,962.53
2019-05-14T10:37:45.376Z,962.50
2019-05-14T10:38:45.432Z,962.50
2019-05-14T10:39:45.357Z,962.51
2019-05-14T10:40:45.345Z,962.47
2019-05-14T10:41:45.328Z,962.44
2019-05-14T10:42:45.317Z,962.36
2019-05-14T10:43:49.561Z,962.30
2019-05-14T10:44:45.387Z,962.34
2019-05-14T10:45:45.291Z,962.30
2019-05-14T10:46:45.278Z,962.27
2019-05-14T10:47:45.266Z,962.27
2019-05-14T10:48:45.260Z,962.28
2019-05-14T10:49:45.241Z,962.12
2019-05-14T10:50:56.262Z,962.14
2019-05-14T10:51:47.968Z,962.12
2019-05-14T10:52:45.203Z,962.10
2019-05-14T10:53:45.197Z,962.07
2019-05-14T10:54:55.460Z,962.11
2019-05-14T10:55:48.493Z,962.13
2019-05-14T10:56:45.176Z,962.21
2019-05-14T10:57:45.155Z,962.23
2019-05-14T10:58:45.884Z,962.22
2019-05-14T10:59:45.130Z,962.29
2019-05-14T11:00:45.111Z,962.39
2019-05-14T11:01:45.124Z,962.49
2019-05-14T11:02:45.121Z,962.46
2019-05-14T11:03:45.080Z,962.54
2019-05-14T11:04:45.071Z,962.48
2019-05-14T11:05:45.071Z,962.54
2019-05-14T11:06:45.100Z,962.54
2019-05-14T11:07:45.052Z,962.54
2019-05-14T11:08:45.043Z,962.44
2019-05-14T11:09:45.014Z,962.53
2019-05-14T11:10:44.997Z,962.47
2019-05-14T11:11:44.986Z,962.38
2019-05-14T11:12:44.993Z,962.37
2019-05-14T11:13:44.963Z,962.29
2019-05-14T11:14:44.978Z,962.23
2019-05-14T11:15:44.941Z,962.25
2019-05-14T11:16:44.930Z,962.21
2019-05-14T11:17:44.945Z,962.17
2019-05-14T11:18:44.912Z,962.12
2019-05-14T11:19:44.892Z,962.05
2019-05-14T11:20:44.934Z,962.14
2019-05-14T11:21:44.870Z,962.10
2019-05-14T11:22:44.863Z,962.05
2019-05-14T11:23:44.865Z,962.05
2019-05-14T11:24:44.839Z,962.05
2019-05-14T11:25:44.831Z,962.06
2019-05-14T11:26:44.830Z,962.02
2019-05-14T11:27:44.802Z,961.94
2019-05-14T11:28:44.825Z,961.94
2019-05-14T11:29:44.782Z,961.93
2019-05-14T11:30:44.765Z,961.89
2019-05-14T11:31:44.762Z,962.01
2019-05-14T11:32:44.766Z,961.95
2019-05-14T11:33:44.736Z,961.99
2019-05-14T11:34:44.746Z,962.00
2019-05-14T11:35:44.709Z,961.97
2019-05-14T11:36:44.702Z,961.97
2019-05-14T11:37:44.688Z,961.85
2019-05-14T11:38:44.719Z,961.85
2019-05-14T11:39:44.663Z,961.86
2019-05-14T11:40:44.672Z,961.88
2019-05-14T11:41:44.645Z,961.90
2019-05-14T11:42:44.630Z,961.87
2019-05-14T11:43:44.615Z,961.84
2019-05-14T11:44:44.640Z,961.84
2019-05-14T11:45:44.621Z,961.78
2019-05-14T11:46:56.323Z,961.79
2019-05-14T11:47:45.571Z,961.81
2019-05-14T11:48:44.570Z,961.80
2019-05-14T11:49:44.549Z,961.79
2019-05-14T11:50:44.569Z,961.79
2019-05-14T11:52:02.752Z,961.89
2019-05-14T11:52:45.514Z,961.76
2019-05-14T11:53:44.509Z,961.82
2019-05-14T11:54:44.495Z,961.83
2019-05-14T11:55:44.482Z,961.80
2019-05-14T11:56:44.495Z,961.79
2019-05-14T11:57:44.477Z,961.78
2019-05-14T11:58:44.449Z,961.82
2019-05-14T11:59:44.429Z,961.82
2019-05-14T12:00:44.419Z,961.85
2019-05-14T12:01:44.419Z,961.81
2019-05-14T12:02:44.413Z,961.78
2019-05-14T12:03:44.438Z,961.80
2019-05-14T12:04:44.379Z,961.89
2019-05-14T12:05:44.365Z,961.90
2019-05-14T12:06:44.360Z,961.94
2019-05-14T12:07:44.377Z,961.97
2019-05-14T12:08:44.338Z,961.92
2019-05-14T12:09:44.346Z,961.94
2019-05-14T12:10:44.306Z,961.98
2019-05-14T12:11:44.329Z,961.95
2019-05-14T12:12:44.285Z,961.97
2019-05-14T12:13:44.294Z,961.92
2019-05-14T12:14:44.263Z,961.89
2019-05-14T12:15:44.262Z,961.89
2019-05-14T12:16:44.259Z,961.88
2019-05-14T12:17:44.248Z,961.85
2019-05-14T12:18:44.287Z,961.83
2019-05-14T12:19:44.340Z,961.77
2019-05-14T12:20:44.197Z,961.85
2019-05-14T12:21:58.786Z,961.84
2019-05-14T12:22:45.201Z,961.84
2019-05-14T12:23:44.156Z,961.83
2019-05-14T12:24:44.879Z,961.77
2019-05-14T12:25:44.195Z,961.83
2019-05-14T12:26:44.134Z,961.81
2019-05-14T12:27:44.112Z,961.81
2019-05-14T12:28:44.116Z,961.74